Time;durP1;ratioP1;P1;durP2;ratioP2;P2;SDS_P1;SDS_P2;PMS_P1;PMS_P2;Temp;Humidity;BMP_temperature;BMP_pressure;BME280_temperature;BME280_humidity;BME280_pressure;Samples;Min_cycle;Max_cycle;Signal;HPM_P1;HPM_P2
2023/11/19 00:00:42;;;;;;;2.20;1.80;;;11.80;99.90;;;;;;5042197;28;20210;-59
2023/11/19 00:03:10;;;;;;;1.10;1.00;;;11.90;99.90;;;;;;5043358;28;20197;-60
2023/11/19 00:05:38;;;;;;;1.37;1.27;;;11.90;99.90;;;;;;5041524;28;20627;-57
2023/11/19 00:08:06;;;;;;;2.40;1.50;;;12.00;99.90;;;;;;5039830;28;20194;-61
2023/11/19 00:10:33;;;;;;;1.20;1.10;;;11.90;99.90;;;;;;5040457;28;20213;-59
2023/11/19 00:12:59;;;;;;;1.63;1.23;;;11.80;99.90;;;;;;5043232;28;20209;-59
2023/11/19 00:15:26;;;;;;;1.60;1.50;;;11.90;99.90;;;;;;5042913;28;20228;-59
2023/11/19 00:17:53;;;;;;;2.80;1.43;;;11.90;99.90;;;;;;5043500;28;20224;-61
2023/11/19 00:20:21;;;;;;;1.50;1.23;;;11.90;99.90;;;;;;5043481;28;20239;-59
2023/11/19 00:22:50;;;;;;;1.30;1.20;;;11.80;99.90;;;;;;5040292;28;20210;-59
2023/11/19 00:25:17;;;;;;;1.70;1.30;;;11.80;99.90;;;;;;5039452;28;20268;-58
2023/11/19 00:27:45;;;;;;;1.50;1.30;;;11.80;99.90;;;;;;5042231;28;20225;-58
2023/11/19 00:30:13;;;;;;;1.90;1.40;;;11.70;99.90;;;;;;5043459;28;20229;-58
2023/11/19 00:32:40;;;;;;;1.70;1.20;;;11.80;99.90;;;;;;5041426;28;20295;-58
2023/11/19 00:35:07;;;;;;;1.57;1.40;;;11.80;99.90;;;;;;5039400;28;20226;-59
2023/11/19 00:37:34;;;;;;;1.70;1.07;;;11.90;99.90;;;;;;5040270;28;20313;-59
2023/11/19 00:40:05;;;;;;;2.23;1.30;;;11.90;99.90;;;;;;5042731;28;20220;-58
2023/11/19 00:42:31;;;;;;;2.07;1.20;;;12.00;99.90;;;;;;5042050;28;20694;-58
2023/11/19 00:44:58;;;;;;;1.50;1.40;;;12.00;99.90;;;;;;5039405;28;20218;-60
2023/11/19 00:47:25;;;;;;;2.70;1.40;;;11.90;99.90;;;;;;5039708;28;20285;-61
2023/11/19 00:49:52;;;;;;;1.87;1.40;;;12.00;99.90;;;;;;5042470;28;20259;-61
2023/11/19 00:52:20;;;;;;;1.73;1.37;;;12.00;99.90;;;;;;5044662;28;20631;-58
2023/11/19 00:54:46;;;;;;;3.60;1.53;;;12.00;99.90;;;;;;5043704;28;20205;-59
2023/11/19 00:57:14;;;;;;;1.07;0.97;;;12.00;99.90;;;;;;5043064;28;20636;-59
2023/11/19 00:59:42;;;;;;;2.17;1.20;;;12.00;99.90;;;;;;5044945;28;20206;-59
2023/11/19 01:02:09;;;;;;;1.37;1.03;;;12.10;99.90;;;;;;5046545;28;20296;-59
2023/11/19 01:04:36;;;;;;;1.40;1.30;;;12.10;99.90;;;;;;5045295;28;20590;-59
2023/11/19 01:07:04;;;;;;;1.17;1.07;;;12.20;99.90;;;;;;5043037;28;20680;-59
2023/11/19 01:09:32;;;;;;;1.47;1.17;;;12.20;99.90;;;;;;5043045;28;20252;-60
2023/11/19 01:12:00;;;;;;;1.50;1.40;;;12.20;99.90;;;;;;5046506;28;20671;-58
2023/11/19 01:14:28;;;;;;;17.30;8.57;;;12.10;99.90;;;;;;5046693;28;20197;-57
2023/11/19 01:16:55;;;;;;;5.67;3.27;;;12.20;99.90;;;;;;5034932;28;20266;-60
2023/11/19 01:19:23;;;;;;;2.07;1.50;;;12.20;99.90;;;;;;5042913;28;20214;-59
2023/11/19 01:21:49;;;;;;;1.60;1.17;;;12.40;99.90;;;;;;5045817;28;20661;-60
2023/11/19 01:24:16;;;;;;;1.03;0.97;;;12.30;99.90;;;;;;5046532;28;20205;-60
2023/11/19 01:26:45;;;;;;;2.20;1.37;;;12.40;99.90;;;;;;5044880;28;20228;-59
2023/11/19 01:29:13;;;;;;;1.70;1.23;;;12.50;99.90;;;;;;5043150;28;20221;-60
2023/11/19 01:31:41;;;;;;;1.67;1.10;;;12.50;99.90;;;;;;5043816;28;20206;-60
2023/11/19 01:34:08;;;;;;;2.73;1.13;;;12.50;99.90;;;;;;5045764;28;20676;-60
2023/11/19 01:36:35;;;;;;;1.47;1.07;;;12.50;99.90;;;;;;5045613;28;20229;-60
2023/11/19 01:39:01;;;;;;;1.20;0.97;;;12.50;99.90;;;;;;5042360;28;20280;-59
2023/11/19 01:41:28;;;;;;;0.83;0.73;;;12.50;99.90;;;;;;5042786;28;20206;-60
2023/11/19 01:43:55;;;;;;;2.80;0.90;;;12.50;99.90;;;;;;5046237;28;20202;-60
2023/11/19 01:46:21;;;;;;;2.30;1.17;;;12.60;99.90;;;;;;5045556;28;20279;-59
2023/11/19 01:48:49;;;;;;;1.00;0.90;;;12.60;99.90;;;;;;5043124;28;20216;-60
2023/11/19 01:51:17;;;;;;;0.93;0.90;;;12.60;99.90;;;;;;5042055;28;20225;-59
2023/11/19 01:53:45;;;;;;;1.47;1.00;;;12.60;99.90;;;;;;5043896;28;20202;-59
2023/11/19 01:56:15;;;;;;;0.70;0.70;;;12.60;99.90;;;;;;5045084;28;20221;-59
2023/11/19 01:58:43;;;;;;;2.10;1.20;;;12.60;99.90;;;;;;5043705;28;20222;-59
2023/11/19 02:01:11;;;;;;;0.93;0.83;;;12.70;99.90;;;;;;5041787;28;20575;-59
2023/11/19 02:03:38;;;;;;;1.17;0.73;;;12.70;99.90;;;;;;5041802;28;20645;-60
2023/11/19 02:06:10;;;;;;;0.90;0.77;;;12.70;99.90;;;;;;5045108;28;20233;-60
2023/11/19 02:08:36;;;;;;;0.97;0.80;;;12.70;99.90;;;;;;5044589;28;20232;-59
2023/11/19 02:11:03;;;;;;;1.13;0.90;;;12.80;99.90;;;;;;5041968;28;20248;-59
2023/11/19 02:13:30;;;;;;;0.73;0.53;;;12.80;99.90;;;;;;5041901;28;20284;-60
2023/11/19 02:15:57;;;;;;;1.73;1.20;;;12.70;99.90;;;;;;5033504;28;20237;-59
2023/11/19 02:18:27;;;;;;;1.40;0.90;;;12.80;99.90;;;;;;5041873;28;20214;-59
2023/11/19 02:20:54;;;;;;;1.70;0.90;;;12.80;99.90;;;;;;5044962;28;20201;-59
2023/11/19 02:23:23;;;;;;;0.97;0.80;;;12.80;99.90;;;;;;5044945;28;20221;-60
2023/11/19 02:26:00;;;;;;;1.40;1.00;;;12.90;99.90;;;;;;5042242;28;20336;-60
2023/11/19 02:28:29;;;;;;;1.30;0.87;;;12.90;99.90;;;;;;5042147;28;20225;-59
2023/11/19 02:30:56;;;;;;;1.17;0.80;;;12.80;99.90;;;;;;5044884;28;20212;-60
2023/11/19 02:33:23;;;;;;;0.90;0.60;;;12.90;99.90;;;;;;5044778;28;20690;-59
2023/11/19 02:35:49;;;;;;;1.30;0.90;;;12.90;99.90;;;;;;5041951;28;20248;-60
2023/11/19 02:38:16;;;;;;;1.77;1.10;;;12.90;99.90;;;;;;5041270;28;20225;-58
2023/11/19 02:40:43;;;;;;;2.50;0.80;;;12.90;99.90;;;;;;5042559;28;20202;-59
2023/11/19 02:43:10;;;;;;;1.37;0.90;;;13.00;99.90;;;;;;5044569;28;20209;-60
2023/11/19 02:45:38;;;;;;;1.10;0.70;;;13.00;99.90;;;;;;5043505;28;20633;-60
2023/11/19 02:48:06;;;;;;;0.90;0.80;;;13.10;99.90;;;;;;5041004;28;20606;-59
2023/11/19 02:50:33;;;;;;;0.77;0.77;;;13.10;99.90;;;;;;5040979;28;20226;-58
2023/11/19 02:53:01;;;;;;;3.63;1.23;;;13.10;99.90;;;;;;5044325;28;20202;-59
2023/11/19 02:55:30;;;;;;;1.37;1.00;;;13.10;99.90;;;;;;5044302;28;20229;-60
2023/11/19 02:57:59;;;;;;;1.20;0.90;;;13.10;99.90;;;;;;5041105;28;20224;-59
2023/11/19 03:00:32;;;;;;;1.00;0.90;;;13.10;99.90;;;;;;5040855;28;20664;-60
2023/11/19 03:03:05;;;;;;;1.40;0.87;;;13.10;99.90;;;;;;5044280;28;20285;-59
2023/11/19 03:05:32;;;;;;;1.53;1.00;;;13.10;99.90;;;;;;5043996;28;20229;-60
2023/11/19 03:07:59;;;;;;;1.23;1.00;;;13.00;99.90;;;;;;5032715;28;20198;-59
2023/11/19 03:10:25;;;;;;;1.47;1.00;;;13.10;99.90;;;;;;5040703;28;20203;-59
2023/11/19 03:12:52;;;;;;;0.80;0.70;;;13.10;99.90;;;;;;5043335;28;20688;-59
2023/11/19 03:15:20;;;;;;;1.60;1.10;;;13.00;99.90;;;;;;5043465;28;20221;-60
2023/11/19 03:17:48;;;;;;;1.87;1.20;;;13.10;99.90;;;;;;5042005;28;20252;-59
2023/11/19 03:20:16;;;;;;;1.70;0.90;;;13.20;99.90;;;;;;5040633;28;20652;-59
2023/11/19 03:22:43;;;;;;;1.67;1.00;;;13.10;99.90;;;;;;5041895;28;20320;-59
2023/11/19 03:25:10;;;;;;;2.10;0.90;;;13.20;99.90;;;;;;5044014;28;20256;-60
2023/11/19 03:27:38;;;;;;;1.00;0.90;;;13.20;99.90;;;;;;5043001;28;20579;-59
2023/11/19 03:30:06;;;;;;;1.43;1.00;;;13.20;99.90;;;;;;5040381;28;20206;-60
2023/11/19 03:32:34;;;;;;;0.90;0.80;;;13.20;99.90;;;;;;5040398;28;20217;-60
2023/11/19 03:35:01;;;;;;;1.43;1.10;;;13.30;99.90;;;;;;5032372;28;20321;-60
2023/11/19 03:37:29;;;;;;;3.53;3.00;;;13.30;99.90;;;;;;5040561;28;20590;-59
2023/11/19 03:39:59;;;;;;;2.43;1.07;;;13.30;99.90;;;;;;5043430;28;20289;-60
2023/11/19 03:42:26;;;;;;;0.70;0.70;;;13.20;99.90;;;;;;5043564;28;20201;-58
2023/11/19 03:44:53;;;;;;;1.27;0.80;;;13.10;99.90;;;;;;5040634;28;20288;-59
2023/11/19 03:47:20;;;;;;;0.80;0.63;;;13.10;99.90;;;;;;5040219;28;20289;-59
2023/11/19 03:49:49;;;;;;;0.97;0.60;;;13.00;99.90;;;;;;5041926;28;20229;-59
2023/11/19 03:52:16;;;;;;;1.10;0.50;;;13.10;99.90;;;;;;5043455;28;20205;-58
2023/11/19 03:54:45;;;;;;;0.97;0.70;;;13.10;99.90;;;;;;5041900;28;20210;-59
2023/11/19 03:57:13;;;;;;;0.57;0.50;;;13.10;99.90;;;;;;5039973;28;20209;-59
2023/11/19 03:59:40;;;;;;;0.70;0.57;;;13.10;99.90;;;;;;5040272;28;20218;-58
2023/11/19 04:02:07;;;;;;;1.17;0.70;;;13.10;99.90;;;;;;5043209;28;20732;-59
2023/11/19 04:04:34;;;;;;;0.90;0.60;;;13.10;99.90;;;;;;5043376;28;20244;-61
2023/11/19 04:07:02;;;;;;;0.77;0.60;;;13.10;99.90;;;;;;5069436;23;20244;-62
2023/11/19 04:09:29;;;;;;;1.53;0.60;;;13.00;99.90;;;;;;5051363;28;20198;-62
2023/11/19 04:11:57;;;;;;;0.60;0.50;;;13.10;99.90;;;;;;5051038;28;20252;-63
2023/11/19 04:14:24;;;;;;;2.23;0.50;;;13.10;99.90;;;;;;5050844;28;20630;-62
2023/11/19 04:16:50;;;;;;;0.30;0.30;;;13.10;99.90;;;;;;5042579;28;20715;-62
2023/11/19 04:19:17;;;;;;;0.43;0.43;;;13.10;99.90;;;;;;5042802;28;20623;-61
2023/11/19 04:21:44;;;;;;;0.30;0.20;;;13.20;99.90;;;;;;5041516;28;20220;-63
2023/11/19 04:24:12;;;;;;;1.50;0.30;;;13.20;99.90;;;;;;5039233;28;20566;-62
2023/11/19 04:26:41;;;;;;;1.40;0.23;;;13.40;99.90;;;;;;5038888;28;20222;-63
2023/11/19 04:29:11;;;;;;;0.90;0.47;;;13.40;99.90;;;;;;5042663;28;20722;-62
2023/11/19 04:31:37;;;;;;;0.50;0.30;;;13.30;99.90;;;;;;5042107;28;20666;-63
2023/11/19 04:34:04;;;;;;;0.83;0.30;;;13.40;99.90;;;;;;5039192;28;20233;-63
2023/11/19 04:36:31;;;;;;;0.23;0.20;;;13.40;99.90;;;;;;5039256;28;20226;-63
2023/11/19 04:38:59;;;;;;;1.33;0.30;;;13.50;99.90;;;;;;5042252;28;20227;-63
2023/11/19 04:41:27;;;;;;;0.10;0.10;;;13.50;99.90;;;;;;5042459;28;20201;-63
2023/11/19 04:43:53;;;;;;;0.23;0.20;;;13.50;99.90;;;;;;5040280;28;20259;-63
2023/11/19 04:46:23;;;;;;;0.30;0.20;;;13.50;99.90;;;;;;5038967;28;20218;-63
2023/11/19 04:48:50;;;;;;;0.20;0.20;;;13.50;99.90;;;;;;5041173;28;20252;-62
2023/11/19 04:51:17;;;;;;;0.60;0.20;;;13.50;99.90;;;;;;5042299;28;20690;-61
2023/11/19 04:53:43;;;;;;;0.70;0.37;;;13.50;99.90;;;;;;5041425;28;20305;-62
2023/11/19 04:56:11;;;;;;;1.70;0.27;;;13.50;99.90;;;;;;5038760;28;20225;-63
2023/11/19 04:58:38;;;;;;;0.20;0.20;;;13.60;99.90;;;;;;5039187;28;20226;-63
2023/11/19 05:01:05;;;;;;;1.30;0.90;;;13.60;99.90;;;;;;5042794;28;20202;-62
2023/11/19 05:03:33;;;;;;;1.20;1.00;;;13.60;99.90;;;;;;5042475;28;20594;-62
2023/11/19 05:06:00;;;;;;;1.80;0.47;;;13.50;99.90;;;;;;5038755;28;20344;-63
2023/11/19 05:08:27;;;;;;;0.40;0.40;;;13.60;99.90;;;;;;5038877;28;20207;-63
2023/11/19 05:10:54;;;;;;;1.00;0.63;;;13.50;99.90;;;;;;5041256;28;20316;-63
2023/11/19 05:13:21;;;;;;;0.40;0.20;;;13.60;99.90;;;;;;5042494;28;20567;-63
2023/11/19 05:15:48;;;;;;;0.90;0.40;;;13.70;99.90;;;;;;5040835;28;20245;-63
2023/11/19 05:18:14;;;;;;;1.90;0.43;;;13.60;99.90;;;;;;5038810;28;20202;-64
2023/11/19 05:20:42;;;;;;;0.47;0.30;;;13.60;99.90;;;;;;5039346;28;20210;-63
2023/11/19 05:23:09;;;;;;;0.50;0.30;;;13.70;99.90;;;;;;5042082;28;20206;-63
2023/11/19 05:25:37;;;;;;;0.73;0.60;;;13.70;99.90;;;;;;5041917;28;20253;-63
2023/11/19 05:28:04;;;;;;;2.03;0.70;;;13.70;99.90;;;;;;5031180;28;20209;-63
2023/11/19 05:30:31;;;;;;;1.43;0.50;;;13.80;99.90;;;;;;5038597;28;20664;-64
2023/11/19 05:32:58;;;;;;;0.70;0.33;;;13.80;99.90;;;;;;5041490;28;20217;-63
2023/11/19 05:35:24;;;;;;;0.30;0.30;;;13.90;99.90;;;;;;5041874;28;20229;-64
2023/11/19 05:37:52;;;;;;;1.37;0.80;;;13.90;99.90;;;;;;5041122;28;20213;-62
2023/11/19 05:40:20;;;;;;;0.97;0.47;;;13.90;99.90;;;;;;5042417;28;20218;-62
2023/11/19 05:42:47;;;;;;;1.23;0.50;;;13.90;99.90;;;;;;5043515;28;20293;-63
2023/11/19 05:45:13;;;;;;;0.33;0.33;;;13.90;99.90;;;;;;5045512;28;20513;-62
2023/11/19 05:47:40;;;;;;;0.60;0.50;;;13.90;99.90;;;;;;5045584;28;20234;-62
2023/11/19 05:50:08;;;;;;;0.53;0.40;;;13.90;99.90;;;;;;5045385;28;20197;-63
2023/11/19 05:52:35;;;;;;;0.27;0.20;;;13.90;99.90;;;;;;5045619;28;20210;-63
2023/11/19 05:55:09;;;;;;;0.20;0.20;;;13.90;99.90;;;;;;5042003;28;20198;-63
2023/11/19 05:57:35;;;;;;;0.40;0.30;;;13.90;99.90;;;;;;5042150;28;20210;-63
2023/11/19 06:00:03;;;;;;;0.33;0.30;;;14.00;99.90;;;;;;5045267;28;20225;-62
2023/11/19 06:02:30;;;;;;;0.67;0.37;;;14.00;99.90;;;;;;5045352;28;20198;-63
2023/11/19 06:04:56;;;;;;;0.73;0.50;;;14.00;99.90;;;;;;5042008;28;20232;-62
2023/11/19 06:07:23;;;;;;;2.47;1.40;;;14.10;99.90;;;;;;5041938;28;20289;-63
2023/11/19 06:09:50;;;;;;;0.70;0.50;;;14.10;99.90;;;;;;5043280;28;20198;-63
2023/11/19 06:12:18;;;;;;;0.30;0.30;;;14.00;99.90;;;;;;5045191;28;20202;-63
2023/11/19 06:14:44;;;;;;;0.70;0.40;;;14.00;99.90;;;;;;5043816;28;20733;-62
2023/11/19 06:17:12;;;;;;;0.70;0.60;;;14.00;99.90;;;;;;5041450;28;20609;-63
2023/11/19 06:19:38;;;;;;;1.17;0.70;;;14.00;99.90;;;;;;5041129;28;20229;-60
2023/11/19 06:22:05;;;;;;;2.40;1.30;;;14.00;99.90;;;;;;5045279;28;20206;-63
2023/11/19 06:24:32;;;;;;;1.63;1.27;;;14.10;99.90;;;;;;5045072;28;20217;-63
2023/11/19 06:26:59;;;;;;;1.13;0.87;;;14.00;99.90;;;;;;5041966;28;20237;-63
2023/11/19 06:29:28;;;;;;;1.53;0.70;;;14.00;99.90;;;;;;5041469;28;20650;-63
2023/11/19 06:31:54;;;;;;;0.90;0.80;;;14.00;99.90;;;;;;5043273;28;20210;-63
2023/11/19 06:34:21;;;;;;;1.33;0.80;;;14.10;99.90;;;;;;5044641;28;20204;-63
2023/11/19 06:36:48;;;;;;;2.33;1.20;;;14.20;99.90;;;;;;5043401;28;20228;-63
2023/11/19 06:39:15;;;;;;;1.03;0.77;;;14.30;99.90;;;;;;5041339;28;20249;-64
2023/11/19 06:41:46;;;;;;;2.40;1.60;;;14.30;99.90;;;;;;5041455;28;20245;-63
2023/11/19 06:44:12;;;;;;;1.30;1.00;;;14.40;99.90;;;;;;5044441;28;20198;-65
2023/11/19 06:46:41;;;;;;;0.90;0.70;;;14.30;99.90;;;;;;5044121;28;20719;-61
2023/11/19 06:49:07;;;;;;;2.43;1.20;;;14.40;99.90;;;;;;5040623;28;20202;-62
2023/11/19 06:51:34;;;;;;;1.13;0.80;;;14.30;99.90;;;;;;5041112;28;20289;-63
2023/11/19 06:54:01;;;;;;;1.60;1.10;;;14.40;99.90;;;;;;5044094;28;20209;-60
2023/11/19 06:56:28;;;;;;;1.53;1.03;;;14.40;99.90;;;;;;5044471;28;20252;-62
2023/11/19 06:58:55;;;;;;;3.60;1.40;;;14.40;99.90;;;;;;5042165;28;20699;-63
2023/11/19 07:01:21;;;;;;;1.87;0.57;;;14.50;99.90;;;;;;5041185;28;20225;-60
2023/11/19 07:03:51;;;;;;;1.87;0.60;;;14.40;99.90;;;;;;5041940;28;20221;-61
2023/11/19 07:06:18;;;;;;;0.80;0.70;;;14.40;99.90;;;;;;5044180;28;20229;-60
2023/11/19 07:08:45;;;;;;;1.20;1.00;;;14.40;99.90;;;;;;5043494;28;20217;-61
2023/11/19 07:11:12;;;;;;;2.07;0.90;;;14.40;99.90;;;;;;5040625;28;20206;-61
2023/11/19 07:13:38;;;;;;;0.87;0.60;;;14.40;99.90;;;;;;5040367;28;20202;-61
2023/11/19 07:16:09;;;;;;;2.20;1.10;;;14.30;99.90;;;;;;5040350;28;20226;-61
2023/11/19 07:18:36;;;;;;;1.00;0.40;;;14.30;99.90;;;;;;5040687;28;20302;-61
2023/11/19 07:21:05;;;;;;;0.90;0.70;;;14.20;99.90;;;;;;5043593;28;20218;-61
2023/11/19 07:23:32;;;;;;;1.10;0.80;;;14.20;99.90;;;;;;5044124;28;20224;-60
2023/11/19 07:25:59;;;;;;;1.13;0.70;;;14.30;99.90;;;;;;5040791;28;20226;-61
2023/11/19 07:28:28;;;;;;;0.43;0.40;;;14.30;99.90;;;;;;5040108;28;20209;-59
2023/11/19 07:30:56;;;;;;;0.93;0.73;;;14.40;99.90;;;;;;5042133;28;20287;-62
2023/11/19 07:33:22;;;;;;;1.17;0.70;;;14.30;99.90;;;;;;5043728;28;20210;-61
2023/11/19 07:35:49;;;;;;;1.47;0.87;;;14.30;99.90;;;;;;5042130;28;20229;-61
2023/11/19 07:38:18;;;;;;;0.30;0.30;;;14.30;99.90;;;;;;5040150;28;20504;-61
2023/11/19 07:40:44;;;;;;;0.63;0.40;;;14.30;99.90;;;;;;5040166;28;20797;-61
2023/11/19 07:43:11;;;;;;;1.80;1.50;;;14.30;99.90;;;;;;5043612;28;20206;-61
2023/11/19 07:45:38;;;;;;;0.67;0.60;;;14.40;99.90;;;;;;5043312;28;20229;-61
2023/11/19 07:48:06;;;;;;;2.00;1.07;;;14.40;99.90;;;;;;5039986;28;20228;-61
2023/11/19 07:50:32;;;;;;;3.37;0.87;;;14.60;99.90;;;;;;5039712;28;20682;-64
2023/11/19 07:52:59;;;;;;;1.60;1.30;;;14.60;99.90;;;;;;5042034;28;20206;-62
2023/11/19 07:55:28;;;;;;;2.23;0.60;;;14.50;99.90;;;;;;5042950;28;20221;-62
2023/11/19 07:57:54;;;;;;;2.10;1.40;;;14.50;99.90;;;;;;5041449;28;20445;-62
2023/11/19 08:00:21;;;;;;;1.40;0.80;;;14.50;99.90;;;;;;5039357;28;20326;-61
2023/11/19 08:02:48;;;;;;;0.50;0.30;;;14.60;99.90;;;;;;5040472;28;20210;-62
2023/11/19 08:05:14;;;;;;;1.43;1.00;;;14.60;99.90;;;;;;5042577;28;20596;-62
2023/11/19 08:07:41;;;;;;;0.95;0.80;;;14.70;99.90;;;;;;5043084;28;20324;-61
2023/11/19 08:10:10;;;;;;;1.37;1.00;;;14.70;99.90;;;;;;5031628;28;20195;-62
2023/11/19 08:12:38;;;;;;;0.80;0.80;;;14.90;99.90;;;;;;5039730;28;20207;-62
2023/11/19 08:15:06;;;;;;;1.63;0.68;;;15.00;99.90;;;;;;5042350;28;20212;-62
2023/11/19 08:17:33;;;;;;;1.08;0.73;;;15.20;99.90;;;;;;5042832;28;20263;-63
2023/11/19 08:20:01;;;;;;;1.73;0.80;;;15.30;99.90;;;;;;5040169;28;20299;-62
2023/11/19 08:22:27;;;;;;;2.40;0.98;;;15.30;99.90;;;;;;5039365;28;20229;-63
2023/11/19 08:24:54;;;;;;;0.80;0.57;;;15.40;99.90;;;;;;5040681;28;20210;-63
2023/11/19 08:27:26;;;;;;;1.95;1.20;;;15.50;99.90;;;;;;5042677;28;20667;-63
2023/11/19 08:29:55;;;;;;;0.80;0.60;;;15.70;99.90;;;;;;5041118;28;20621;-63
2023/11/19 08:32:22;;;;;;;1.95;1.00;;;15.90;99.90;;;;;;5039337;28;20617;-64
2023/11/19 08:34:48;;;;;;;1.05;0.38;;;16.00;99.90;;;;;;5039852;28;20235;-63
2023/11/19 08:37:17;;;;;;;0.68;0.60;;;16.10;99.90;;;;;;5042851;28;20232;-60
2023/11/19 08:39:44;;;;;;;1.15;0.57;;;16.10;99.90;;;;;;5042275;28;20294;-63
2023/11/19 08:42:11;;;;;;;1.55;0.70;;;16.10;99.90;;;;;;5039166;28;20559;-63
2023/11/19 08:44:43;;;;;;;1.13;0.50;;;16.10;99.90;;;;;;5038669;28;20691;-64
2023/11/19 08:47:12;;;;;;;2.63;2.42;;;16.00;99.90;;;;;;5039040;28;20226;-62
2023/11/19 08:49:39;;;;;;;2.20;2.00;;;16.00;99.90;;;;;;5038869;28;20207;-61
2023/11/19 08:52:07;;;;;;;1.57;1.47;;;15.90;99.90;;;;;;5042425;28;20237;-66
2023/11/19 08:54:34;;;;;;;1.08;0.47;;;15.80;99.90;;;;;;5042445;28;20217;-63
2023/11/19 08:57:02;;;;;;;1.00;0.63;;;15.80;99.90;;;;;;5040011;28;20647;-63
2023/11/19 08:59:29;;;;;;;2.15;0.63;;;15.80;99.90;;;;;;5038783;28;20198;-62
2023/11/19 09:01:57;;;;;;;2.23;0.87;;;15.70;99.90;;;;;;5040583;28;20203;-62
2023/11/19 09:04:25;;;;;;;2.22;1.00;;;15.70;99.90;;;;;;5042249;28;20206;-63
2023/11/19 09:06:52;;;;;;;3.45;1.65;;;15.80;99.90;;;;;;5041119;28;20308;-62
2023/11/19 09:09:18;;;;;;;1.60;1.17;;;15.90;99.90;;;;;;5039044;28;20203;-62
2023/11/19 09:11:45;;;;;;;0.57;0.57;;;16.00;99.90;;;;;;5039548;28;20210;-63
2023/11/19 09:14:12;;;;;;;2.08;0.75;;;16.00;99.90;;;;;;5045229;28;20679;-62
2023/11/19 09:16:39;;;;;;;0.98;0.65;;;16.10;99.90;;;;;;5046237;28;20229;-61
2023/11/19 09:19:05;;;;;;;0.98;0.57;;;16.20;99.90;;;;;;5042838;28;20743;-62
2023/11/19 09:21:36;;;;;;;1.60;1.23;;;16.20;99.90;;;;;;5042595;28;20249;-61
2023/11/19 09:24:03;;;;;;;1.48;0.60;;;16.30;99.90;;;;;;5045206;28;20295;-61
2023/11/19 09:26:30;;;;;;;0.60;0.60;;;16.40;99.90;;;;;;5046015;28;20226;-65
2023/11/19 09:28:57;;;;;;;0.70;0.63;;;16.50;99.90;;;;;;5043726;28;20267;-62
2023/11/19 09:31:24;;;;;;;2.25;0.60;;;16.50;99.90;;;;;;5032401;28;20206;-62
2023/11/19 09:33:50;;;;;;;1.42;0.85;;;16.60;99.90;;;;;;5043333;28;20206;-59
2023/11/19 09:36:18;;;;;;;18.88;16.08;;;16.60;99.90;;;;;;5045531;28;20221;-61
2023/11/19 09:38:46;;;;;;;3.60;2.88;;;16.60;99.90;;;;;;5045951;28;20394;-60
2023/11/19 09:41:14;;;;;;;1.90;1.30;;;16.60;99.90;;;;;;5042387;28;20222;-61
2023/11/19 09:43:41;;;;;;;4.72;1.33;;;16.70;99.90;;;;;;5042012;28;20210;-59
2023/11/19 09:46:11;;;;;;;0.60;0.60;;;16.70;99.90;;;;;;5044979;28;20605;-65
2023/11/19 09:48:40;;;;;;;1.88;1.58;;;16.60;99.90;;;;;;5038419;28;20218;-63
2023/11/19 09:51:07;;;;;;;2.70;2.05;;;16.50;99.90;;;;;;5044951;28;20194;-63
2023/11/19 09:53:34;;;;;;;1.58;1.10;;;16.40;99.90;;;;;;5045153;28;20214;-64
2023/11/19 09:56:03;;;;;;;5.47;3.80;;;16.40;99.90;;;;;;5042540;28;20229;-64
2023/11/19 09:58:31;;;;;;;1.85;1.30;;;16.40;99.90;;;;;;5042001;28;20230;-64
2023/11/19 10:00:59;;;;;;;2.55;1.80;;;16.40;99.90;;;;;;5043320;28;20640;-64
2023/11/19 10:03:27;;;;;;;2.63;1.40;;;16.50;99.90;;;;;;5045193;28;20651;-62
2023/11/19 10:05:55;;;;;;;3.60;1.05;;;16.60;99.90;;;;;;5066950;23;20237;-59
2023/11/19 10:08:22;;;;;;;3.05;1.25;;;16.70;99.90;;;;;;5053469;28;20213;-59
2023/11/19 10:10:49;;;;;;;4.00;1.10;;;16.80;99.90;;;;;;5053170;28;20206;-59
2023/11/19 10:13:17;;;;;;;1.50;0.98;;;17.10;99.90;;;;;;5053385;28;20229;-61
2023/11/19 10:15:45;;;;;;;4.50;1.00;;;17.30;99.90;;;;;;5053116;28;20257;-60
2023/11/19 10:18:11;;;;;;;2.83;1.30;;;17.40;99.90;;;;;;5033322;28;20199;-60
2023/11/19 10:20:38;;;;;;;1.63;0.70;;;17.60;99.90;;;;;;5026337;28;20237;-59
2023/11/19 10:23:05;;;;;;;1.15;0.70;;;17.80;99.90;;;;;;5032639;28;20226;-60
2023/11/19 10:25:34;;;;;;;1.38;0.80;;;18.00;99.90;;;;;;5032044;28;20303;-59
2023/11/19 10:28:01;;;;;;;1.13;0.90;;;18.00;99.90;;;;;;5032976;28;20206;-61
2023/11/19 10:30:30;;;;;;;12.60;10.68;;;18.00;99.90;;;;;;5032639;28;20245;-60
2023/11/19 10:33:08;;;;;;;5.38;4.65;;;18.00;99.90;;;;;;5032556;28;20221;-60
2023/11/19 10:35:35;;;;;;;1.35;0.82;;;17.90;99.90;;;;;;5032366;28;20261;-61
2023/11/19 10:38:02;;;;;;;1.02;0.80;;;18.10;99.90;;;;;;5032507;28;20229;-60
2023/11/19 10:40:40;;;;;;;2.45;0.82;;;18.40;99.90;;;;;;5032632;28;20668;-62
2023/11/19 10:43:08;;;;;;;2.22;0.57;;;18.60;99.90;;;;;;5032266;28;20214;-62
2023/11/19 10:45:37;;;;;;;0.50;0.50;;;18.60;99.90;;;;;;5032371;28;20261;-62
2023/11/19 10:48:06;;;;;;;0.95;0.73;;;18.50;99.90;;;;;;5032587;28;20218;-63
2023/11/19 10:50:33;;;;;;;1.75;1.13;;;18.50;99.90;;;;;;5032621;28;20557;-63
2023/11/19 10:53:01;;;;;;;0.98;0.60;;;18.40;99.90;;;;;;5032108;28;20206;-61
2023/11/19 10:55:30;;;;;;;1.10;0.43;;;18.40;99.90;;;;;;5032281;28;20207;-63
2023/11/19 10:58:00;;;;;;;1.65;0.73;;;18.50;99.90;;;;;;5032448;28;20206;-61
2023/11/19 11:00:30;;;;;;;1.42;0.57;;;18.50;99.90;;;;;;5031727;28;20699;-60
2023/11/19 11:03:02;;;;;;;1.02;0.80;;;18.50;99.90;;;;;;5033526;28;20264;-58
2023/11/19 11:05:32;;;;;;;0.82;0.50;;;18.50;99.90;;;;;;5043847;28;20677;-58
2023/11/19 11:08:01;;;;;;;1.45;0.90;;;18.30;99.90;;;;;;5042344;28;20639;-57
2023/11/19 11:10:29;;;;;;;1.35;0.70;;;18.10;99.90;;;;;;5040424;28;20232;-57
2023/11/19 11:13:00;;;;;;;1.20;0.80;;;17.90;99.90;;;;;;5041541;28;20217;-60
2023/11/19 11:15:29;;;;;;;1.17;0.80;;;17.80;99.90;;;;;;5043508;28;20205;-58
2023/11/19 11:18:01;;;;;;;1.02;0.52;;;17.90;99.90;;;;;;5042963;28;20645;-58
2023/11/19 11:20:29;;;;;;;2.30;0.60;;;17.80;99.90;;;;;;5040841;28;20284;-58
2023/11/19 11:23:12;;;;;;;1.35;0.55;;;17.90;99.90;;;;;;5041442;28;20691;-59
2023/11/19 11:25:50;;;;;;;3.10;1.08;;;17.90;99.90;;;;;;5043615;28;20226;-59
2023/11/19 11:28:27;;;;;;;2.22;0.57;;;17.60;99.90;;;;;;5032922;28;20209;-59
2023/11/19 11:31:10;;;;;;;2.88;1.13;;;17.60;99.90;;;;;;5041289;28;20213;-58
2023/11/19 11:34:01;;;;;;;2.28;1.23;;;17.60;99.90;;;;;;5043856;28;20213;-59
2023/11/19 11:36:29;;;;;;;2.80;0.90;;;17.70;99.90;;;;;;5033412;28;20230;-59
2023/11/19 11:39:00;;;;;;;0.73;0.47;;;18.00;99.90;;;;;;5041296;28;20203;-59
2023/11/19 11:41:27;;;;;;;1.45;0.80;;;18.20;99.90;;;;;;5043333;28;20244;-58
2023/11/19 11:43:56;;;;;;;2.33;0.57;;;18.40;99.90;;;;;;5042262;28;20210;-59
2023/11/19 11:46:57;;;;;;;2.45;0.82;;;18.60;99.90;;;;;;5039962;28;20722;-58
2023/11/19 11:49:31;;;;;;;9.13;6.03;;;18.50;99.90;;;;;;5033131;28;20213;-59
2023/11/19 11:52:04;;;;;;;2.47;1.25;;;18.50;99.90;;;;;;5040679;28;20652;-58
2023/11/19 11:54:32;;;;;;;1.83;1.00;;;18.50;99.90;;;;;;5043245;28;20207;-57
2023/11/19 11:57:09;;;;;;;5.18;1.08;;;18.70;99.90;;;;;;5041691;28;20228;-59
2023/11/19 11:59:49;;;;;;;1.38;0.85;;;18.80;99.90;;;;;;5039612;28;20288;-58
2023/11/19 12:02:18;;;;;;;1.83;1.00;;;18.90;99.90;;;;;;5031748;28;20636;-59
2023/11/19 12:04:50;;;;;;;2.03;0.82;;;18.80;99.90;;;;;;5039876;28;20214;-59
2023/11/19 12:07:19;;;;;;;1.52;1.17;;;18.60;99.90;;;;;;5031923;28;20229;-59
2023/11/19 12:09:49;;;;;;;2.42;0.80;;;18.60;99.90;;;;;;5039729;28;20679;-58
2023/11/19 12:12:23;;;;;;;1.73;1.15;;;18.60;99.90;;;;;;5032142;28;20241;-58
2023/11/19 12:15:10;;;;;;;2.15;0.80;;;18.70;99.90;;;;;;5039480;28;20680;-59
2023/11/19 12:17:49;;;;;;;1.75;0.70;;;18.80;99.90;;;;;;5042894;28;20259;-59
2023/11/19 12:20:18;;;;;;;1.30;0.70;;;18.90;99.90;;;;;;5031627;28;20212;-56
2023/11/19 12:22:46;;;;;;;3.63;0.90;;;19.00;99.90;;;;;;5039381;28;20206;-58
2023/11/19 12:25:14;;;;;;;1.17;0.75;;;19.00;99.90;;;;;;5042010;28;20689;-58
2023/11/19 12:27:44;;;;;;;3.22;0.73;;;19.00;99.90;;;;;;5042598;28;20252;-58
2023/11/19 12:30:11;;;;;;;3.03;0.82;;;19.00;99.90;;;;;;5039555;28;20678;-60
2023/11/19 12:32:39;;;;;;;2.13;1.20;;;18.90;99.90;;;;;;5039550;28;20556;-60
2023/11/19 12:35:11;;;;;;;2.08;0.60;;;18.70;99.90;;;;;;5041136;28;20210;-59
2023/11/19 12:37:42;;;;;;;3.88;1.73;;;18.70;99.90;;;;;;5042962;28;20205;-58
2023/11/19 12:40:13;;;;;;;8.25;5.25;;;18.50;99.90;;;;;;5039733;28;20217;-58
2023/11/19 12:42:41;;;;;;;2.55;1.08;;;18.30;99.90;;;;;;5039118;28;20647;-58
2023/11/19 12:45:09;;;;;;;2.33;1.00;;;18.00;99.90;;;;;;5041654;28;20210;-58
2023/11/19 12:47:35;;;;;;;2.25;1.00;;;17.80;99.90;;;;;;5043597;28;20229;-58
2023/11/19 12:50:02;;;;;;;2.75;1.40;;;17.40;99.90;;;;;;5044873;28;20205;-58